Time;durP1;ratioP1;P1;durP2;ratioP2;P2;SDS_P1;SDS_P2;PMS_P1;PMS_P2;Temp;Humidity;BMP_temperature;BMP_pressure;BME280_temperature;BME280_humidity;BME280_pressure;Samples;Min_cycle;Max_cycle;Signal;HPM_P1;HPM_P2
2023/04/08 00:01:34;;;;;;;0.93;0.93;;;;;6.80;96179.00;;;;5052933;28;20200;-64
2023/04/08 00:04:02;;;;;;;1.17;1.17;;;;;6.70;96182.00;;;;5052741;28;20215;-64
2023/04/08 00:06:30;;;;;;;0.90;0.90;;;;;6.70;96183.00;;;;5052657;28;20219;-64
2023/04/08 00:08:59;;;;;;;5.93;1.53;;;;;6.70;96191.00;;;;5053176;28;20207;-64
2023/04/08 00:11:26;;;;;;;2.13;2.03;;;;;6.70;96188.00;;;;5052606;28;20306;-64
2023/04/08 00:13:53;;;;;;;1.70;1.60;;;;;6.60;96188.00;;;;5052743;28;20220;-64
2023/04/08 00:16:21;;;;;;;1.10;1.10;;;;;6.60;96189.00;;;;5034594;28;20663;-64
2023/04/08 00:18:48;;;;;;;1.20;1.20;;;;;6.60;96191.00;;;;5052606;28;20216;-64
2023/04/08 00:21:16;;;;;;;1.20;1.20;;;;;6.60;96187.00;;;;5052837;28;20610;-63
2023/04/08 00:23:44;;;;;;;0.93;0.93;;;;;6.60;96196.00;;;;5052868;28;20212;-64
2023/04/08 00:26:13;;;;;;;1.10;1.10;;;;;6.60;96197.00;;;;5052674;28;20738;-64
2023/04/08 00:28:41;;;;;;;1.33;1.33;;;;;6.60;96194.00;;;;5034872;28;20200;-64
2023/04/08 00:31:08;;;;;;;2.33;1.13;;;;;6.60;96199.00;;;;5052635;28;20250;-65
2023/04/08 00:33:36;;;;;;;1.50;1.40;;;;;6.60;96200.00;;;;5052369;28;20228;-63
2023/04/08 00:36:03;;;;;;;1.70;1.60;;;;;6.60;96191.00;;;;5055259;28;20194;-63
2023/04/08 00:38:31;;;;;;;1.30;1.30;;;;;6.70;96198.00;;;;5056437;28;20211;-63
2023/04/08 00:40:58;;;;;;;1.53;1.43;;;;;6.70;96203.00;;;;5056378;28;20228;-64
2023/04/08 00:43:27;;;;;;;1.20;1.17;;;;;6.70;96201.00;;;;5056077;28;20211;-64
2023/04/08 00:45:54;;;;;;;1.80;1.70;;;;;6.70;96204.00;;;;5056120;28;20195;-65
2023/04/08 00:48:22;;;;;;;2.00;1.87;;;;;6.80;96202.00;;;;5056060;28;20306;-64
2023/04/08 00:50:49;;;;;;;1.37;1.37;;;;;6.80;96203.00;;;;5056182;28;20191;-64
2023/04/08 00:53:19;;;;;;;1.00;1.00;;;;;6.80;96193.00;;;;5056390;28;20748;-64
2023/04/08 00:55:46;;;;;;;0.60;0.60;;;;;6.80;96207.00;;;;5056239;28;20199;-64
2023/04/08 00:58:14;;;;;;;1.00;1.00;;;;;6.80;96206.00;;;;5055993;28;20207;-64
2023/04/08 01:00:54;;;;;;;1.03;1.03;;;;;6.80;96213.00;;;;5055748;28;20188;-64
2023/04/08 01:03:30;;;;;;;1.40;1.40;;;;;6.80;96196.00;;;;5055870;28;20222;-64
2023/04/08 01:06:05;;;;;;;2.40;1.97;;;;;6.80;96199.00;;;;5055972;28;20184;-64
2023/04/08 01:08:35;;;;;;;1.70;1.60;;;;;6.80;96194.00;;;;5055666;28;20215;-64
2023/04/08 01:11:04;;;;;;;3.50;1.57;;;;;6.80;96192.00;;;;5056462;28;20191;-64
2023/04/08 01:13:35;;;;;;;1.10;0.97;;;;;6.80;96206.00;;;;5055623;28;20310;-64
2023/04/08 01:16:05;;;;;;;3.00;2.50;;;;;6.90;96195.00;;;;5055544;28;20176;-64
2023/04/08 01:18:35;;;;;;;0.87;0.87;;;;;6.70;96192.00;;;;5055719;28;20192;-64
2023/04/08 01:21:05;;;;;;;1.73;1.63;;;;;6.70;96204.00;;;;5055401;28;20253;-64
2023/04/08 01:23:40;;;;;;;1.17;1.17;;;;;6.80;96200.00;;;;5055267;28;20222;-63
2023/04/08 01:26:12;;;;;;;1.20;1.07;;;;;6.80;96208.00;;;;5055380;28;20176;-63
2023/04/08 01:28:42;;;;;;;1.77;1.27;;;;;6.60;96203.00;;;;5055368;28;20183;-63
2023/04/08 01:31:10;;;;;;;0.90;0.90;;;;;6.50;96203.00;;;;5055323;28;20284;-63
2023/04/08 01:33:38;;;;;;;2.00;1.90;;;;;6.30;96203.00;;;;5055117;28;20226;-63
2023/04/08 01:36:07;;;;;;;1.07;1.07;;;;;6.30;96207.00;;;;5055433;28;20529;-63
2023/04/08 01:38:35;;;;;;;1.27;1.27;;;;;6.30;96207.00;;;;5055373;28;20199;-64
2023/04/08 01:41:05;;;;;;;1.50;1.40;;;;;6.40;96214.00;;;;5055251;28;20557;-64
2023/04/08 01:43:35;;;;;;;1.40;1.40;;;;;6.30;96215.00;;;;5054854;28;20760;-64
2023/04/08 01:46:03;;;;;;;2.07;1.87;;;;;6.40;96209.00;;;;5055169;28;20528;-64
2023/04/08 01:48:31;;;;;;;1.60;1.50;;;;;6.30;96203.00;;;;5055093;28;20192;-63
2023/04/08 01:51:00;;;;;;;2.97;1.33;;;;;6.30;96205.00;;;;5055360;28;20200;-64
2023/04/08 01:53:27;;;;;;;5.97;2.20;;;;;6.40;96203.00;;;;5054787;28;20272;-63
2023/04/08 01:55:57;;;;;;;1.93;1.67;;;;;6.40;96199.00;;;;5054716;28;20223;-63
2023/04/08 01:58:28;;;;;;;2.57;2.30;;;;;6.30;96202.00;;;;5055039;28;20184;-64
2023/04/08 02:00:59;;;;;;;1.97;1.73;;;;;6.30;96198.00;;;;5055146;28;20184;-64
2023/04/08 02:03:28;;;;;;;1.97;1.80;;;;;6.20;96197.00;;;;5055149;28;20219;-64
2023/04/08 02:05:56;;;;;;;1.83;1.70;;;;;6.30;96199.00;;;;5055296;28;20191;-64
2023/04/08 02:08:23;;;;;;;1.97;1.87;;;;;6.40;96195.00;;;;5055297;28;20199;-64
2023/04/08 02:10:51;;;;;;;1.27;1.17;;;;;6.40;96196.00;;;;5055162;28;20204;-64
2023/04/08 02:13:18;;;;;;;1.60;1.50;;;;;6.40;96199.00;;;;5055173;28;20676;-64
2023/04/08 02:15:52;;;;;;;1.77;1.67;;;;;6.60;96196.00;;;;5036402;28;20284;-64
2023/04/08 02:18:25;;;;;;;1.43;1.40;;;;;6.60;96200.00;;;;5054596;28;20184;-63
2023/04/08 02:21:03;;;;;;;1.83;1.73;;;;;6.50;96200.00;;;;5054328;28;20266;-63
2023/04/08 02:23:35;;;;;;;1.33;1.23;;;;;6.60;96198.00;;;;5036330;28;20218;-63
2023/04/08 02:26:04;;;;;;;1.87;1.77;;;;;6.70;96200.00;;;;5054420;28;20624;-63
2023/04/08 02:28:34;;;;;;;1.93;1.83;;;;;6.70;96189.00;;;;5054409;28;20200;-63
2023/04/08 02:31:04;;;;;;;1.37;1.37;;;;;6.60;96200.00;;;;5054321;28;20196;-64
2023/04/08 02:33:35;;;;;;;1.50;1.40;;;;;6.70;96196.00;;;;5053863;28;20222;-64
2023/04/08 02:36:05;;;;;;;1.37;1.27;;;;;6.60;96194.00;;;;5054241;28;20656;-63
2023/04/08 02:38:32;;;;;;;1.67;1.57;;;;;6.50;96201.00;;;;5054017;28;20229;-63
2023/04/08 02:41:00;;;;;;;1.10;1.10;;;;;6.40;96200.00;;;;5035973;28;20207;-64
2023/04/08 02:43:31;;;;;;;0.90;0.90;;;;;6.50;96197.00;;;;5054089;28;20641;-64
2023/04/08 02:46:01;;;;;;;1.17;1.17;;;;;6.40;96196.00;;;;5054148;28;20188;-64
2023/04/08 02:48:29;;;;;;;1.73;1.63;;;;;6.30;96194.00;;;;5054168;28;20294;-64
2023/04/08 02:50:58;;;;;;;0.93;0.93;;;;;6.30;96201.00;;;;5053782;28;20237;-64
2023/04/08 02:53:25;;;;;;;1.00;1.00;;;;;6.30;96186.00;;;;5053663;28;20216;-64
2023/04/08 02:55:53;;;;;;;1.47;1.37;;;;;6.30;96198.00;;;;5053566;28;20214;-64
2023/04/08 02:58:20;;;;;;;1.43;1.40;;;;;6.40;96198.00;;;;5053381;28;20596;-64
2023/04/08 03:00:47;;;;;;;0.90;0.90;;;;;6.30;96193.00;;;;5053538;28;20203;-63
2023/04/08 03:03:15;;;;;;;1.33;1.30;;;;;6.30;96196.00;;;;5053468;28;20226;-63
2023/04/08 03:05:42;;;;;;;1.73;1.63;;;;;6.30;96191.00;;;;5053684;28;20191;-64
2023/04/08 03:08:11;;;;;;;1.50;1.40;;;;;6.30;96196.00;;;;5053613;28;20261;-64
2023/04/08 03:10:38;;;;;;;1.57;1.47;;;;;6.40;96196.00;;;;5053641;28;20206;-64
2023/04/08 03:13:06;;;;;;;1.23;1.23;;;;;6.40;96196.00;;;;5053299;28;20222;-63
2023/04/08 03:15:33;;;;;;;0.90;0.90;;;;;6.50;96193.00;;;;5053711;28;20220;-63
2023/04/08 03:18:01;;;;;;;2.83;1.83;;;;;6.40;96200.00;;;;5053436;28;20604;-64
2023/04/08 03:20:28;;;;;;;1.70;1.57;;;;;6.50;96193.00;;;;5035376;28;20204;-64
2023/04/08 03:22:55;;;;;;;1.47;1.37;;;;;6.40;96151.00;;;;5053104;28;20707;-65
2023/04/08 03:25:24;;;;;;;1.53;1.43;;;;;6.30;96190.00;;;;5053237;28;20196;-63
2023/04/08 03:27:52;;;;;;;1.17;1.10;;;;;6.30;96193.00;;;;5053332;28;20195;-63
2023/04/08 03:30:19;;;;;;;1.80;1.70;;;;;6.30;96190.00;;;;5053652;28;20192;-63
2023/04/08 03:32:47;;;;;;;1.30;1.23;;;;;6.30;96194.00;;;;5035502;28;20226;-63
2023/04/08 03:35:14;;;;;;;0.80;0.80;;;;;6.30;96200.00;;;;5053348;28;20200;-63
2023/04/08 03:37:42;;;;;;;0.87;0.87;;;;;6.30;96201.00;;;;5052986;28;20200;-63
2023/04/08 03:40:10;;;;;;;1.90;1.80;;;;;6.30;96207.00;;;;5052983;28;20689;-63
2023/04/08 03:42:39;;;;;;;1.37;1.33;;;;;6.30;96210.00;;;;5034979;28;20200;-63
2023/04/08 03:45:07;;;;;;;1.03;1.03;;;;;6.40;96208.00;;;;5052889;28;20274;-63
2023/04/08 03:47:35;;;;;;;1.40;1.37;;;;;6.40;96205.00;;;;5035246;28;20207;-64
2023/04/08 03:50:03;;;;;;;2.13;1.80;;;;;6.40;96205.00;;;;5035171;28;20203;-63
2023/04/08 03:52:30;;;;;;;1.90;1.80;;;;;6.40;96199.00;;;;5052786;28;20675;-63
2023/04/08 03:54:58;;;;;;;1.13;1.13;;;;;6.40;96206.00;;;;5053037;28;20571;-63
2023/04/08 03:57:25;;;;;;;1.67;1.57;;;;;6.40;96204.00;;;;5034998;28;20269;-64
2023/04/08 03:59:54;;;;;;;1.20;1.20;;;;;6.30;96205.00;;;;5034947;28;20211;-63
2023/04/08 04:02:21;;;;;;;0.83;0.83;;;;;6.40;96203.00;;;;5053030;28;20656;-62
2023/04/08 04:04:49;;;;;;;1.50;1.40;;;;;6.40;96202.00;;;;5052987;28;20273;-63
2023/04/08 04:07:16;;;;;;;1.13;1.13;;;;;6.40;96201.00;;;;5052693;28;20722;-63
2023/04/08 04:09:44;;;;;;;0.93;0.93;;;;;6.60;96202.00;;;;5054179;28;20222;-63
2023/04/08 04:12:11;;;;;;;1.17;1.17;;;;;6.50;96203.00;;;;5038814;28;20188;-63
2023/04/08 04:14:38;;;;;;;1.00;1.00;;;;;6.50;96208.00;;;;5056859;28;20223;-64
2023/04/08 04:17:07;;;;;;;1.30;1.23;;;;;6.40;96203.00;;;;5056711;28;20199;-63
2023/04/08 04:19:35;;;;;;;2.03;1.93;;;;;6.30;96203.00;;;;5057042;28;20199;-63
2023/04/08 04:22:03;;;;;;;2.03;1.93;;;;;6.30;96210.00;;;;5057100;28;20200;-64
2023/04/08 04:24:30;;;;;;;1.53;1.43;;;;;6.30;96203.00;;;;5056375;28;20270;-63
2023/04/08 04:26:57;;;;;;;0.90;0.90;;;;;6.20;96203.00;;;;5056721;28;20206;-63
2023/04/08 04:29:25;;;;;;;1.10;1.10;;;;;6.20;96209.00;;;;5056597;28;20192;-64
2023/04/08 04:31:52;;;;;;;0.93;0.93;;;;;6.10;96219.00;;;;5038562;28;20192;-64
2023/04/08 04:34:21;;;;;;;2.13;1.93;;;;;6.10;96216.00;;;;5056066;28;20223;-64
2023/04/08 04:36:48;;;;;;;0.80;0.80;;;;;6.20;96213.00;;;;5056218;28;20222;-63
2023/04/08 04:39:16;;;;;;;0.70;0.70;;;;;6.20;96210.00;;;;5056264;28;20189;-64
2023/04/08 04:41:43;;;;;;;1.07;1.07;;;;;6.30;96216.00;;;;5056449;28;20192;-64
2023/04/08 04:44:10;;;;;;;0.90;0.90;;;;;6.30;96214.00;;;;5056299;28;20226;-64
2023/04/08 04:46:38;;;;;;;1.60;1.50;;;;;6.20;96213.00;;;;5056006;28;20656;-63
2023/04/08 04:49:05;;;;;;;1.00;1.00;;;;;6.20;96216.00;;;;5056220;28;20201;-64
2023/04/08 04:51:34;;;;;;;1.30;1.30;;;;;6.20;96218.00;;;;5038136;28;20205;-65
2023/04/08 04:54:02;;;;;;;2.07;1.97;;;;;6.20;96219.00;;;;5055931;28;20219;-64
2023/04/08 04:56:29;;;;;;;0.90;0.90;;;;;6.20;96219.00;;;;5056009;28;20225;-64
2023/04/08 04:58:56;;;;;;;3.10;1.27;;;;;6.20;96218.00;;;;5055878;28;20192;-64
2023/04/08 05:01:24;;;;;;;0.93;0.93;;;;;6.20;96219.00;;;;5055836;28;20206;-64
2023/04/08 05:03:51;;;;;;;1.30;1.20;;;;;6.20;96215.00;;;;5055828;28;20248;-64
2023/04/08 05:06:19;;;;;;;1.00;1.00;;;;;6.20;96217.00;;;;5055789;28;20199;-63
2023/04/08 05:08:47;;;;;;;1.03;1.03;;;;;6.20;96221.00;;;;5055642;28;20200;-63
2023/04/08 05:11:17;;;;;;;1.10;1.10;;;;;6.20;96222.00;;;;5055623;28;20663;-63
2023/04/08 05:13:44;;;;;;;1.10;1.10;;;;;6.10;96235.00;;;;5055665;28;20798;-63
2023/04/08 05:16:11;;;;;;;1.33;1.33;;;;;6.00;96231.00;;;;5037562;28;20231;-63
2023/04/08 05:18:39;;;;;;;1.60;1.53;;;;;6.00;96245.00;;;;5055538;28;20207;-63
2023/04/08 05:21:06;;;;;;;1.37;1.13;;;;;6.10;96248.00;;;;5055136;28;20199;-63
2023/04/08 05:23:35;;;;;;;1.00;1.00;;;;;6.20;96239.00;;;;5055377;28;20215;-64
2023/04/08 05:26:06;;;;;;;1.43;1.40;;;;;6.30;96243.00;;;;5055565;28;20192;-64
2023/04/08 05:28:34;;;;;;;1.30;1.30;;;;;6.30;96251.00;;;;5055664;28;20188;-63
2023/04/08 05:31:01;;;;;;;1.20;1.20;;;;;6.40;96242.00;;;;5055549;28;20200;-63
2023/04/08 05:33:28;;;;;;;1.07;1.07;;;;;6.40;96243.00;;;;5037081;28;20790;-63
2023/04/08 05:35:56;;;;;;;1.07;1.07;;;;;6.30;96237.00;;;;5055610;28;20226;-64
2023/04/08 05:38:23;;;;;;;1.10;1.10;;;;;6.40;96247.00;;;;5055669;28;20674;-63
2023/04/08 05:40:50;;;;;;;1.10;1.10;;;;;6.40;96243.00;;;;5055003;28;20201;-63
2023/04/08 05:43:19;;;;;;;2.07;1.40;;;;;6.50;96247.00;;;;5055113;28;20215;-63
2023/04/08 05:45:47;;;;;;;1.57;1.07;;;;;6.40;96242.00;;;;5055046;28;20223;-63
2023/04/08 05:48:14;;;;;;;1.67;1.50;;;;;6.30;96246.00;;;;5055021;28;20277;-64
2023/04/08 05:50:42;;;;;;;1.23;1.23;;;;;6.20;96242.00;;;;5055083;28;20219;-64
2023/04/08 05:53:10;;;;;;;0.70;0.70;;;;;6.30;96246.00;;;;5055043;28;20227;-64
2023/04/08 05:55:37;;;;;;;2.00;1.90;;;;;6.40;96245.00;;;;5054800;28;20222;-64
2023/04/08 05:58:04;;;;;;;1.13;1.10;;;;;6.50;96249.00;;;;5037241;28;20220;-64
2023/04/08 06:00:33;;;;;;;1.47;1.37;;;;;6.60;96248.00;;;;5054981;28;20562;-64
2023/04/08 06:03:01;;;;;;;10.00;2.53;;;;;6.60;96258.00;;;;5054803;28;20212;-64
2023/04/08 06:05:28;;;;;;;1.07;1.00;;;;;6.60;96256.00;;;;5054619;28;20188;-64
2023/04/08 06:07:55;;;;;;;2.07;1.97;;;;;6.80;96262.00;;;;5036908;28;20200;-64
2023/04/08 06:10:23;;;;;;;2.20;2.00;;;;;6.80;96266.00;;;;5054552;28;20299;-63
2023/04/08 06:12:50;;;;;;;2.60;1.93;;;;;6.80;96268.00;;;;5054694;28;20244;-64
2023/04/08 06:15:18;;;;;;;1.23;1.23;;;;;6.80;96268.00;;;;5054908;28;20203;-64
2023/04/08 06:17:47;;;;;;;1.37;1.33;;;;;6.80;96275.00;;;;5054542;28;20230;-64
2023/04/08 06:20:14;;;;;;;1.90;1.80;;;;;6.90;96268.00;;;;5054390;28;20202;-64
2023/04/08 06:22:41;;;;;;;1.30;1.20;;;;;6.90;96267.00;;;;5054529;28;20192;-64
2023/04/08 06:25:09;;;;;;;1.17;1.17;;;;;7.00;96274.00;;;;5054348;28;20211;-64
2023/04/08 06:27:37;;;;;;;1.00;1.00;;;;;7.20;96274.00;;;;5036270;28;20670;-64
2023/04/08 06:30:05;;;;;;;1.83;1.73;;;;;7.40;96276.00;;;;5054192;28;20203;-64
2023/04/08 06:32:32;;;;;;;1.93;1.83;;;;;7.40;96275.00;;;;5053438;28;20529;-65
2023/04/08 06:35:02;;;;;;;1.27;1.17;;;;;7.40;96275.00;;;;5054043;28;20620;-64
2023/04/08 06:37:29;;;;;;;1.53;1.47;;;;;7.70;96285.00;;;;5054176;28;20306;-64
2023/04/08 06:39:57;;;;;;;1.17;1.13;;;;;8.00;96285.00;;;;5036104;28;20677;-64
2023/04/08 06:42:24;;;;;;;1.03;1.03;;;;;7.90;96286.00;;;;5053826;28;20200;-65
2023/04/08 06:44:52;;;;;;;1.63;1.53;;;;;8.00;96289.00;;;;5054101;28;20195;-63
2023/04/08 06:47:19;;;;;;;1.03;1.03;;;;;7.90;96292.00;;;;5054370;28;20215;-63
2023/04/08 06:49:47;;;;;;;1.27;1.23;;;;;7.90;96291.00;;;;5054137;28;20230;-63
2023/04/08 06:52:15;;;;;;;1.83;1.73;;;;;7.90;96288.00;;;;5053866;28;20203;-63
2023/04/08 06:54:43;;;;;;;1.23;1.23;;;;;7.70;96293.00;;;;5053882;28;20579;-63
2023/04/08 06:57:10;;;;;;;2.47;1.90;;;;;7.80;96294.00;;;;5053560;28;20227;-63
2023/04/08 06:59:38;;;;;;;1.47;1.37;;;;;7.70;96286.00;;;;5053771;28;20192;-63
2023/04/08 07:02:05;;;;;;;1.10;1.10;;;;;7.80;96296.00;;;;5053487;28;20291;-63
2023/04/08 07:04:33;;;;;;;2.57;2.40;;;;;7.80;96301.00;;;;5053448;28;20285;-64
2023/04/08 07:07:01;;;;;;;2.47;2.27;;;;;7.90;96303.00;;;;5053218;28;20191;-63
2023/04/08 07:09:29;;;;;;;1.70;1.60;;;;;7.90;96300.00;;;;5053403;28;20196;-63
2023/04/08 07:11:58;;;;;;;1.73;1.67;;;;;8.00;96299.00;;;;5053569;28;20219;-63
2023/04/08 07:14:26;;;;;;;1.63;1.53;;;;;8.00;96305.00;;;;5053578;28;20635;-64
2023/04/08 07:16:53;;;;;;;1.33;1.23;;;;;8.00;96297.00;;;;5053537;28;20216;-63
2023/04/08 07:19:21;;;;;;;1.43;1.43;;;;;8.10;96298.00;;;;5053360;28;20275;-64
2023/04/08 07:21:48;;;;;;;3.03;2.73;;;;;8.00;96304.00;;;;5053174;28;20270;-63
2023/04/08 07:24:16;;;;;;;1.43;1.33;;;;;8.00;96305.00;;;;5053142;28;20219;-64
2023/04/08 07:26:45;;;;;;;2.03;1.60;;;;;7.90;96296.00;;;;5053108;28;20192;-63
2023/04/08 07:29:13;;;;;;;1.17;1.17;;;;;7.90;96311.00;;;;5053039;28;20224;-64
2023/04/08 07:31:40;;;;;;;5.03;1.00;;;;;8.10;96309.00;;;;5053257;28;20219;-64
2023/04/08 07:34:07;;;;;;;1.10;1.10;;;;;8.00;96312.00;;;;5035009;28;20231;-64
2023/04/08 07:36:35;;;;;;;2.60;2.40;;;;;7.90;96317.00;;;;5052804;28;20243;-63
2023/04/08 07:39:02;;;;;;;1.40;1.40;;;;;7.80;96321.00;;;;5053389;28;20218;-63
2023/04/08 07:41:30;;;;;;;1.90;1.80;;;;;7.90;96312.00;;;;5035063;28;20242;-63
2023/04/08 07:43:58;;;;;;;1.30;1.30;;;;;8.00;96311.00;;;;5052927;28;20215;-64
2023/04/08 07:46:26;;;;;;;1.03;1.03;;;;;8.10;96325.00;;;;5053208;28;20184;-64
2023/04/08 07:48:53;;;;;;;0.77;0.77;;;;;8.20;96327.00;;;;5034977;28;20195;-63
2023/04/08 07:51:21;;;;;;;1.63;1.53;;;;;8.30;96332.00;;;;5035027;28;20210;-64
2023/04/08 07:53:48;;;;;;;1.40;1.40;;;;;8.20;96320.00;;;;5052734;28;20303;-63
2023/04/08 07:56:17;;;;;;;1.00;1.00;;;;;8.30;96323.00;;;;5052735;28;20216;-64
2023/04/08 07:58:46;;;;;;;2.03;1.93;;;;;8.40;96332.00;;;;5052815;28;20279;-63
2023/04/08 08:01:20;;;;;;;1.40;1.30;;;;;8.50;96328.00;;;;5052833;28;20189;-64
2023/04/08 08:03:48;;;;;;;1.43;1.33;;;;;8.30;96331.00;;;;5052630;28;20717;-64
2023/04/08 08:06:15;;;;;;;2.27;2.17;;;;;8.20;96341.00;;;;5034979;28;20238;-64
2023/04/08 08:08:43;;;;;;;2.00;1.90;;;;;8.20;96343.00;;;;5052917;28;20543;-63
2023/04/08 08:11:10;;;;;;;1.20;1.20;;;;;8.20;96337.00;;;;5052559;28;20275;-63
2023/04/08 08:13:38;;;;;;;1.40;1.30;;;;;8.30;96335.00;;;;5052519;28;20654;-63
2023/04/08 08:16:07;;;;;;;1.67;1.57;;;;;8.40;96344.00;;;;5052738;28;20219;-64
2023/04/08 08:18:36;;;;;;;1.60;1.50;;;;;8.50;96338.00;;;;5052742;28;20667;-63
2023/04/08 08:21:04;;;;;;;1.20;1.20;;;;;8.60;96335.00;;;;5034595;28;20691;-63
2023/04/08 08:23:31;;;;;;;1.73;1.63;;;;;9.00;96331.00;;;;5034460;28;20637;-63
2023/04/08 08:26:01;;;;;;;1.67;1.60;;;;;9.30;96340.00;;;;5052472;28;20196;-63
2023/04/08 08:28:29;;;;;;;1.40;1.40;;;;;9.30;96339.00;;;;5052735;28;20229;-63
2023/04/08 08:30:56;;;;;;;1.90;1.73;;;;;9.50;96334.00;;;;5052990;28;20192;-65
2023/04/08 08:33:24;;;;;;;1.37;1.33;;;;;9.70;96347.00;;;;5052356;28;20219;-63
2023/04/08 08:35:54;;;;;;;1.30;1.27;;;;;9.90;96337.00;;;;5052577;28;20199;-64
2023/04/08 08:38:21;;;;;;;1.97;1.87;;;;;9.80;96339.00;;;;5034572;28;20196;-63
2023/04/08 08:40:55;;;;;;;1.63;1.53;;;;;9.80;96346.00;;;;5052806;28;20188;-63
2023/04/08 08:43:22;;;;;;;1.37;1.37;;;;;9.80;96345.00;;;;5052238;28;20235;-61
2023/04/08 08:45:50;;;;;;;1.00;1.00;;;;;9.90;96352.00;;;;5034427;28;20203;-62
2023/04/08 08:48:17;;;;;;;1.83;1.73;;;;;9.90;96361.00;;;;5034393;28;20512;-64
2023/04/08 08:50:45;;;;;;;5.00;1.70;;;;;9.80;96356.00;;;;5052457;28;20287;-64
2023/04/08 08:53:14;;;;;;;2.07;1.97;;;;;10.10;96354.00;;;;5052898;28;20566;-64
2023/04/08 08:55:41;;;;;;;1.10;1.10;;;;;10.10;96366.00;;;;5053791;28;20208;-64
2023/04/08 08:58:09;;;;;;;1.87;1.77;;;;;10.30;96356.00;;;;5056529;28;20216;-64
2023/04/08 09:00:39;;;;;;;1.80;1.70;;;;;10.50;96348.00;;;;5055854;28;20227;-62
2023/04/08 09:03:17;;;;;;;1.57;1.47;;;;;10.70;96354.00;;;;5056103;28;20713;-62
2023/04/08 09:05:52;;;;;;;2.53;2.20;;;;;11.00;96355.00;;;;5056144;28;20203;-62
2023/04/08 09:08:30;;;;;;;2.67;2.37;;;;;11.40;96353.00;;;;5038084;28;20674;-62
2023/04/08 09:11:12;;;;;;;1.17;1.17;;;;;11.50;96352.00;;;;5055867;28;20210;-63
2023/04/08 09:13:40;;;;;;;2.33;2.23;;;;;11.40;96358.00;;;;5055592;28;20220;-62
2023/04/08 09:16:10;;;;;;;3.70;1.53;;;;;11.50;96355.00;;;;5055574;28;20225;-62
2023/04/08 09:18:37;;;;;;;3.63;1.53;;;;;11.60;96355.00;;;;5055691;28;20204;-61
2023/04/08 09:21:06;;;;;;;1.83;1.73;;;;;11.60;96351.00;;;;5055586;28;20204;-68
2023/04/08 09:23:46;;;;;;;1.60;1.53;;;;;11.80;96357.00;;;;5055557;28;20633;-66
2023/04/08 09:26:15;;;;;;;2.17;2.07;;;;;11.70;96363.00;;;;5055901;28;20190;-67
2023/04/08 09:28:43;;;;;;;1.43;1.30;;;;;11.70;96358.00;;;;5055976;28;20254;-62
2023/04/08 09:31:21;;;;;;;1.70;1.60;;;;;11.90;96356.00;;;;5037289;28;20211;-62
2023/04/08 09:33:49;;;;;;;1.57;1.53;;;;;12.20;96357.00;;;;5055035;28;20223;-63
2023/04/08 09:36:17;;;;;;;1.90;1.80;;;;;12.10;96357.00;;;;5055045;28;20298;-70
2023/04/08 09:38:46;;;;;;;1.87;1.77;;;;;12.00;96358.00;;;;5037484;28;20203;-64
2023/04/08 09:41:15;;;;;;;1.73;1.63;;;;;11.40;96367.00;;;;5054957;28;20192;-64
2023/04/08 09:43:47;;;;;;;3.03;2.80;;;;;11.20;96364.00;;;;5055244;28;20273;-64
2023/04/08 09:46:17;;;;;;;1.13;1.13;;;;;11.30;96362.00;;;;5054988;28;20199;-64
2023/04/08 09:48:51;;;;;;;2.13;2.03;;;;;11.40;96357.00;;;;5055011;28;20291;-64
2023/04/08 09:51:22;;;;;;;3.50;2.00;;;;;11.60;96358.00;;;;5054939;28;20259;-64
2023/04/08 09:54:01;;;;;;;1.87;1.77;;;;;11.50;96360.00;;;;5055016;28;20675;-64
2023/04/08 09:56:35;;;;;;;3.77;1.83;;;;;11.70;96366.00;;;;5054939;28;20179;-64
2023/04/08 09:59:09;;;;;;;2.57;2.37;;;;;11.70;96374.00;;;;5055426;28;20230;-64
2023/04/08 10:01:39;;;;;;;4.80;2.60;;;;;11.10;96377.00;;;;5054709;28;20195;-64
2023/04/08 10:04:12;;;;;;;2.07;1.97;;;;;11.00;96366.00;;;;5054522;28;20211;-64
2023/04/08 10:06:40;;;;;;;2.57;2.37;;;;;11.40;96369.00;;;;5054923;28;20188;-65
2023/04/08 10:09:10;;;;;;;1.40;1.40;;;;;11.10;96377.00;;;;5053828;28;20601;-64
2023/04/08 10:11:38;;;;;;;2.63;2.43;;;;;11.00;96380.00;;;;5054711;28;20199;-64
2023/04/08 10:14:06;;;;;;;2.27;1.73;;;;;10.80;96374.00;;;;5054493;28;20675;-64
2023/04/08 10:16:33;;;;;;;1.10;1.10;;;;;11.00;96369.00;;;;5054491;28;20199;-65
2023/04/08 10:19:00;;;;;;;1.30;1.20;;;;;11.30;96372.00;;;;5054340;28;20204;-64
2023/04/08 10:21:38;;;;;;;1.20;1.20;;;;;11.50;96364.00;;;;5054380;28;20220;-64
2023/04/08 10:24:11;;;;;;;1.33;1.33;;;;;12.00;96367.00;;;;5054720;28;20226;-64
2023/04/08 10:26:41;;;;;;;1.77;1.67;;;;;12.30;96369.00;;;;5054509;28;20651;-65
2023/04/08 10:29:30;;;;;;;3.37;2.30;;;;;12.20;96365.00;;;;5054322;28;20558;-65
2023/04/08 10:31:58;;;;;;;2.50;2.30;;;;;11.60;96362.00;;;;5054018;28;20198;-64
2023/04/08 10:34:27;;;;;;;1.83;1.73;;;;;12.00;96359.00;;;;5053829;28;20219;-64
2023/04/08 10:36:57;;;;;;;2.17;2.07;;;;;12.30;96362.00;;;;5054827;28;20216;-65
2023/04/08 10:39:27;;;;;;;3.20;2.77;;;;;12.70;96364.00;;;;5054231;28;20538;-65
2023/04/08 10:41:55;;;;;;;1.93;1.83;;;;;12.60;96368.00;;;;5054119;28;20196;-65
2023/04/08 10:44:25;;;;;;;0.90;0.90;;;;;12.70;96366.00;;;;5054000;28;20223;-64
2023/04/08 10:46:53;;;;;;;2.67;2.47;;;;;12.60;96379.00;;;;5054447;28;20195;-64
2023/04/08 10:49:21;;;;;;;2.30;2.20;;;;;12.40;96376.00;;;;5053780;28;20192;-64
2023/04/08 10:51:49;;;;;;;1.57;1.47;;;;;12.40;96374.00;;;;5053691;28;20216;-64
2023/04/08 10:54:17;;;;;;;2.40;2.20;;;;;12.00;96368.00;;;;5053623;28;20290;-64
2023/04/08 10:56:48;;;;;;;2.13;2.03;;;;;12.10;96374.00;;;;5035831;28;20683;-65
2023/04/08 10:59:19;;;;;;;1.70;1.60;;;;;12.20;96371.00;;;;5054050;28;20219;-65
2023/04/08 11:01:46;;;;;;;1.63;1.53;;;;;12.30;96378.00;;;;5053783;28;20181;-65
2023/04/08 11:04:15;;;;;;;3.20;3.00;;;;;12.30;96372.00;;;;5053234;28;20247;-64
2023/04/08 11:06:44;;;;;;;1.73;1.63;;;;;12.40;96369.00;;;;5053894;28;20192;-64
2023/04/08 11:09:12;;;;;;;2.97;2.77;;;;;12.40;96366.00;;;;5053577;28;20275;-64
2023/04/08 11:11:41;;;;;;;1.90;1.80;;;;;12.50;96368.00;;;;5053525;28;20199;-64
2023/04/08 11:14:10;;;;;;;1.87;1.77;;;;;12.40;96378.00;;;;5053503;28;20211;-64
2023/04/08 11:16:38;;;;;;;6.47;2.50;;;;;12.30;96366.00;;;;5053440;28;20203;-65
2023/04/08 11:19:06;;;;;;;2.87;2.10;;;;;12.10;96379.00;;;;5035469;28;20682;-65
2023/04/08 11:21:37;;;;;;;1.27;1.27;;;;;11.70;96377.00;;;;5035296;28;20287;-64
2023/04/08 11:24:10;;;;;;;1.97;1.87;;;;;11.60;96377.00;;;;5053249;28;20208;-64
2023/04/08 11:26:38;;;;;;;1.87;1.77;;;;;11.60;96385.00;;;;5053081;28;20675;-64
2023/04/08 11:29:11;;;;;;;1.73;1.63;;;;;11.30;96377.00;;;;5053424;28;20702;-64
2023/04/08 11:31:41;;;;;;;1.47;1.43;;;;;11.10;96381.00;;;;5053353;28;20180;-64
2023/04/08 11:34:09;;;;;;;2.43;2.23;;;;;11.10;96372.00;;;;5052701;28;20226;-64
2023/04/08 11:36:36;;;;;;;1.60;1.50;;;;;11.10;96373.00;;;;5053170;28;20200;-64
2023/04/08 11:39:09;;;;;;;5.70;2.00;;;;;11.00;96381.00;;;;5053258;28;20216;-64
2023/04/08 11:41:38;;;;;;;1.63;1.53;;;;;11.00;96383.00;;;;5052931;28;20663;-64
2023/04/08 11:44:06;;;;;;;2.37;2.13;;;;;11.00;96379.00;;;;5052869;28;20208;-66
2023/04/08 11:46:34;;;;;;;1.67;1.57;;;;;10.40;96376.00;;;;5034898;28;20664;-64
2023/04/08 11:49:05;;;;;;;1.80;1.70;;;;;10.60;96382.00;;;;5052892;28;20238;-66
2023/04/08 11:51:34;;;;;;;3.33;3.03;;;;;10.50;96377.00;;;;5053025;28;20263;-64
2023/04/08 11:54:05;;;;;;;3.80;2.63;;;;;10.60;96387.00;;;;5034730;28;20695;-64
2023/04/08 11:56:43;;;;;;;2.17;2.07;;;;;10.60;96375.00;;;;5035053;28;20287;-65
2023/04/08 11:59:11;;;;;;;3.10;2.90;;;;;10.60;96383.00;;;;5053729;28;20200;-65
2023/04/08 12:01:38;;;;;;;1.40;1.40;;;;;10.80;96380.00;;;;5052576;28;20203;-64
2023/04/08 12:04:09;;;;;;;1.67;1.63;;;;;10.70;96382.00;;;;5052762;28;20662;-65
2023/04/08 12:06:36;;;;;;;1.97;1.83;;;;;10.70;96384.00;;;;5053114;28;20188;-65
2023/04/08 12:09:03;;;;;;;2.00;1.70;;;;;10.70;96386.00;;;;5052789;28;20199;-65
2023/04/08 12:11:31;;;;;;;2.13;2.03;;;;;10.60;96386.00;;;;5053691;28;20203;-65
2023/04/08 12:13:58;;;;;;;0.93;0.93;;;;;10.50;96391.00;;;;5053202;28;20212;-65
2023/04/08 12:16:26;;;;;;;1.83;1.73;;;;;10.30;96389.00;;;;5052741;28;20191;-65
2023/04/08 12:18:53;;;;;;;2.00;1.90;;;;;10.20;96389.00;;;;5052829;28;20294;-64
2023/04/08 12:21:22;;;;;;;2.03;1.93;;;;;10.30;96387.00;;;;5052937;28;20192;-64
2023/04/08 12:23:49;;;;;;;2.60;2.40;;;;;10.30;96391.00;;;;5052654;28;20216;-64
2023/04/08 12:26:17;;;;;;;3.50;2.47;;;;;10.40;96387.00;;;;5052406;28;20220;-65
2023/04/08 12:28:44;;;;;;;1.47;1.37;;;;;10.50;96392.00;;;;5052669;28;20192;-64
2023/04/08 12:31:12;;;;;;;1.03;1.03;;;;;10.60;96386.00;;;;5054189;28;20195;-65